createdAt,value
2022-11-28T00:02:28.005Z,101324.06
2022-11-28T00:05:30.556Z,101318.03
2022-11-28T00:08:33.831Z,101337.16
2022-11-28T00:11:36.351Z,101313.72
2022-11-28T00:14:39.052Z,101303.84
2022-11-28T00:17:41.688Z,101324.34
2022-11-28T00:20:43.944Z,101334.72
2022-11-28T00:23:48.386Z,101313.12
2022-11-28T00:26:50.671Z,101324.34
2022-11-28T00:29:53.276Z,101315.31
2022-11-28T00:32:55.475Z,101301.13
2022-11-28T00:36:04.451Z,101331.16
2022-11-28T00:39:06.817Z,101290.22
2022-11-28T00:42:09.311Z,101337.72
2022-11-28T00:45:11.726Z,101341.53
2022-11-28T00:48:14.239Z,101335.00
2022-11-28T00:51:19.517Z,101326.81
2022-11-28T00:54:22.027Z,101337.97
2022-11-28T00:57:24.304Z,101327.88
2022-11-28T01:00:26.842Z,101333.88
2022-11-28T01:03:29.068Z,101316.97
2022-11-28T01:06:40.520Z,101339.34
2022-11-28T01:09:42.865Z,101341.84
2022-11-28T01:12:45.452Z,101306.59
2022-11-28T01:15:48.155Z,101334.44
2022-11-28T01:18:51.515Z,101332.81
2022-11-28T01:21:53.901Z,101306.03
2022-11-28T01:24:56.438Z,101320.00
2022-11-28T01:27:58.765Z,101319.16
2022-11-28T01:31:09.554Z,101319.97
2022-11-28T01:34:11.845Z,101304.41
2022-11-28T01:37:14.402Z,101319.13
2022-11-28T01:40:17.059Z,101322.41
2022-11-28T01:43:21.243Z,101320.22
2022-11-28T01:46:23.568Z,101294.59
2022-11-28T01:49:31.747Z,101282.84
2022-11-28T01:52:36.868Z,101277.09
2022-11-28T01:56:01.226Z,101287.75
2022-11-28T01:59:07.647Z,101281.44
2022-11-28T02:02:18.318Z,101263.97
2022-11-28T02:05:22.061Z,101285.28
2022-11-28T02:08:25.524Z,101267.28
2022-11-28T02:11:40.171Z,101277.06
2022-11-28T02:15:06.919Z,101278.72
2022-11-28T02:18:39.671Z,101280.38
2022-11-28T02:22:02.252Z,101270.81
2022-11-28T02:25:33.615Z,101275.44
2022-11-28T02:28:58.610Z,101264.53
2022-11-28T02:32:33.105Z,101265.06
2022-11-28T02:35:55.833Z,101240.47
2022-11-28T02:39:52.200Z,101238.88
2022-11-28T02:43:26.291Z,101254.69
2022-11-28T02:46:37.571Z,101252.53
2022-11-28T02:50:07.412Z,101230.13
2022-11-28T02:53:14.620Z,101224.13
2022-11-28T02:56:18.088Z,101249.22
2022-11-28T02:59:38.800Z,101220.84
2022-11-28T03:02:43.772Z,101244.03
2022-11-28T03:06:05.528Z,101225.78
2022-11-28T03:09:46.863Z,101214.84
2022-11-28T03:13:21.522Z,101241.88
2022-11-28T03:16:46.244Z,101238.31
2022-11-28T03:19:54.691Z,101215.94
2022-11-28T03:23:16.371Z,101238.84
2022-11-28T03:26:46.326Z,101238.84
2022-11-28T03:29:56.092Z,101227.63
2022-11-28T03:33:01.606Z,101226.56
2022-11-28T03:36:17.889Z,101208.03
2022-11-28T03:39:24.084Z,101211.53
2022-11-28T03:42:31.614Z,101209.38
2022-11-28T03:45:42.791Z,101173.91
2022-11-28T03:48:48.610Z,101192.16
2022-11-28T03:51:57.814Z,101194.62
2022-11-28T03:55:05.483Z,101174.16
2022-11-28T03:58:37.463Z,101160.25
2022-11-28T04:02:04.717Z,101185.87
2022-11-28T04:05:32.787Z,101174.16
2022-11-28T04:08:44.502Z,101166.22
2022-11-28T04:11:59.226Z,101143.91
2022-11-28T04:15:09.792Z,101156.44
2022-11-28T04:18:29.727Z,101146.63
2022-11-28T04:22:01.379Z,101167.34
2022-11-28T04:25:15.375Z,101173.06
2022-11-28T04:28:23.274Z,101148.25
2022-11-28T04:31:26.814Z,101160.25
2022-11-28T04:34:32.482Z,101138.44
2022-11-28T04:37:39.123Z,101129.72
2022-11-28T04:40:47.216Z,101136.25
2022-11-28T04:44:01.012Z,101137.34
2022-11-28T04:47:04.468Z,101128.63
2022-11-28T04:50:08.176Z,101136.28
2022-11-28T04:53:15.671Z,101145.03
2022-11-28T04:56:44.386Z,101131.91
2022-11-28T04:59:48.323Z,101155.63
2022-11-28T05:02:54.048Z,101136.25
2022-11-28T05:05:56.510Z,101148.00
2022-11-28T05:08:59.089Z,101133.00
2022-11-28T05:12:01.496Z,101128.66
2022-11-28T05:15:05.170Z,101160.25
2022-11-28T05:18:09.271Z,101155.63
2022-11-28T05:21:12.614Z,101139.31
2022-11-28T05:24:14.920Z,101139.56
2022-11-28T05:27:17.468Z,101163.56
2022-11-28T05:30:19.720Z,101166.84
2022-11-28T05:33:22.206Z,101140.69
2022-11-28T05:36:24.502Z,101126.53
2022-11-28T05:39:27.084Z,101171.50
2022-11-28T05:42:33.237Z,101154.34
2022-11-28T05:45:40.958Z,101153.50
2022-11-28T05:48:43.315Z,101178.88
2022-11-28T05:51:45.816Z,101182.44
2022-11-28T05:54:48.007Z,101161.97
2022-11-28T05:57:50.758Z,101191.69
2022-11-28T06:00:53.027Z,101194.69
2022-11-28T06:04:00.871Z,101170.41
2022-11-28T06:07:03.207Z,101145.63
2022-11-28T06:10:07.250Z,101188.41
2022-11-28T06:13:09.521Z,101177.22
2022-11-28T06:16:15.219Z,101163.59
2022-11-28T06:19:18.051Z,101162.53
2022-11-28T06:22:20.977Z,101185.16
2022-11-28T06:25:23.249Z,101186.53
2022-11-28T06:28:25.773Z,101166.88
2022-11-28T06:31:30.026Z,101124.91
2022-11-28T06:34:32.885Z,101170.16
2022-11-28T06:37:35.322Z,101191.97
2022-11-28T06:40:41.188Z,101190.06
2022-11-28T06:43:43.536Z,101169.63
2022-11-28T06:46:46.670Z,101195.81
2022-11-28T06:49:49.567Z,101196.34
2022-11-28T06:52:54.003Z,101188.72
2022-11-28T06:55:56.275Z,101177.00
2022-11-28T06:58:59.983Z,101203.44
2022-11-28T07:02:07.462Z,101194.69
2022-11-28T07:05:10.439Z,101193.06
2022-11-28T07:08:12.726Z,101202.91
2022-11-28T07:11:23.496Z,101181.88
2022-11-28T07:14:26.023Z,101191.69
2022-11-28T07:17:28.746Z,101201.22
2022-11-28T07:20:30.956Z,101187.59
2022-11-28T07:23:33.569Z,101190.06
2022-11-28T07:26:38.124Z,101208.84
2022-11-28T07:29:40.999Z,101178.88
2022-11-28T07:32:43.598Z,101185.94
2022-11-28T07:35:46.078Z,101203.13
2022-11-28T07:38:51.179Z,101205.56
2022-11-28T07:41:53.810Z,101178.28
2022-11-28T07:44:56.746Z,101192.44
2022-11-28T07:47:59.335Z,101167.84
2022-11-28T07:51:12.939Z,101184.69
2022-11-28T07:54:15.518Z,101162.87
2022-11-28T07:57:17.804Z,101184.06
2022-11-28T08:00:21.158Z,101181.88
2022-11-28T08:03:23.725Z,101173.09
2022-11-28T08:06:28.639Z,101182.87
2022-11-28T08:09:32.276Z,101182.53
2022-11-28T08:12:34.590Z,101172.91
2022-11-28T08:15:38.624Z,101174.47
2022-11-28T08:18:41.047Z,101154.84
2022-11-28T08:21:43.676Z,101177.16
2022-11-28T08:24:45.981Z,101172.78
2022-11-28T08:27:48.518Z,101177.72
2022-11-28T08:30:51.232Z,101182.66
2022-11-28T08:33:55.958Z,101190.34
2022-11-28T08:36:58.220Z,101186.63
2022-11-28T08:40:00.828Z,101173.91
2022-11-28T08:43:03.187Z,101176.91
2022-11-28T08:46:10.732Z,101178.34
2022-11-28T08:49:13.353Z,101200.72
2022-11-28T08:52:16.211Z,101187.66
2022-11-28T08:55:22.219Z,101186.59
2022-11-28T08:58:28.074Z,101190.69
2022-11-28T09:01:30.915Z,101189.37
2022-11-28T09:04:33.534Z,101196.16
2022-11-28T09:07:35.852Z,101170.00
2022-11-28T09:10:40.477Z,101192.63
2022-11-28T09:13:43.105Z,101185.78
2022-11-28T09:16:45.655Z,101167.50
2022-11-28T09:19:48.169Z,101167.50
2022-11-28T09:22:50.679Z,101157.69
2022-11-28T09:25:53.354Z,101161.78
2022-11-28T09:28:55.989Z,101172.09
2022-11-28T09:31:58.246Z,101160.66
2022-11-28T09:35:00.817Z,101169.97
2022-11-28T09:38:03.095Z,101169.97
2022-11-28T09:41:23.862Z,101163.72
2022-11-28T09:44:55.420Z,101152.53
2022-11-28T09:48:21.338Z,101161.78
2022-11-28T09:51:33.273Z,101161.19
2022-11-28T09:54:52.530Z,101157.12
2022-11-28T09:57:55.401Z,101125.78
2022-11-28T10:01:32.609Z,101126.31
2022-11-28T10:04:42.719Z,101143.50
2022-11-28T10:07:57.228Z,101143.81
2022-11-28T10:11:27.096Z,101136.44
2022-11-28T10:14:57.211Z,101121.41
2022-11-28T10:18:27.912Z,101109.47
2022-11-28T10:21:42.263Z,101119.00
2022-11-28T10:24:54.217Z,101098.81
2022-11-28T10:27:57.860Z,101104.00
2022-11-28T10:31:16.891Z,101107.25
2022-11-28T10:34:25.099Z,101118.69
2022-11-28T10:37:31.453Z,101116.50
2022-11-28T10:40:59.425Z,101108.31
2022-11-28T10:44:08.061Z,101105.00
2022-11-28T10:47:17.516Z,101108.28
2022-11-28T10:50:38.925Z,101102.31
2022-11-28T10:53:46.675Z,101096.56
2022-11-28T10:57:12.689Z,101093.03
2022-11-28T11:00:18.306Z,101086.00
2022-11-28T11:03:28.291Z,101089.00
2022-11-28T11:06:41.280Z,101079.41
2022-11-28T11:09:51.179Z,101072.88
2022-11-28T11:12:55.011Z,101078.88
2022-11-28T11:16:11.342Z,101077.78
2022-11-28T11:19:25.526Z,101077.53
2022-11-28T11:22:31.923Z,101079.97
2022-11-28T11:25:34.611Z,101052.44
2022-11-28T11:28:50.785Z,101075.03
2022-11-28T11:31:54.046Z,101076.69
2022-11-28T11:34:58.509Z,101072.88
2022-11-28T11:38:20.310Z,101076.69
2022-11-28T11:41:29.951Z,101069.59
2022-11-28T11:44:34.625Z,101061.66
2022-11-28T11:47:42.866Z,101055.66
2022-11-28T11:50:54.178Z,101036.87
2022-11-28T11:54:20.992Z,101069.00
2022-11-28T11:57:36.078Z,101037.37
2022-11-28T12:00:40.444Z,101062.69
2022-11-28T12:03:59.005Z,101049.88
2022-11-28T12:07:06.514Z,101036.25
2022-11-28T12:10:15.333Z,101053.09
2022-11-28T12:13:23.436Z,101033.78
2022-11-28T12:16:52.323Z,101060.75
2022-11-28T12:20:00.865Z,101055.25
2022-11-28T12:23:17.704Z,101054.16
2022-11-28T12:26:52.540Z,101044.88
2022-11-28T12:30:39.105Z,101019.87
2022-11-28T12:34:25.888Z,101016.56
2022-11-28T12:38:09.862Z,101037.84
2022-11-28T12:41:11.970Z,101044.13
2022-11-28T12:44:34.366Z,101028.00
2022-11-28T12:48:12.338Z,101037.28
2022-11-28T12:51:35.059Z,101036.69
2022-11-28T12:55:01.011Z,101035.09
2022-11-28T12:58:19.989Z,101022.50
2022-11-28T13:01:49.830Z,101021.34
2022-11-28T13:05:10.596Z,101027.34
2022-11-28T13:08:46.457Z,101029.28
2022-11-28T13:12:13.916Z,101016.66
2022-11-28T13:15:28.357Z,101015.28
2022-11-28T13:18:54.024Z,101006.56
2022-11-28T13:22:25.482Z,101016.34
2022-11-28T13:25:39.571Z,101021.81
2022-11-28T13:29:09.400Z,101005.94
2022-11-28T13:32:28.456Z,101007.59
2022-11-28T13:35:31.315Z,101009.50
2022-11-28T13:39:11.270Z,100999.72
2022-11-28T13:42:52.743Z,101000.53
2022-11-28T13:45:44.253Z,101009.81
2022-11-28T13:52:18.207Z,101008.75
2022-11-28T13:55:40.961Z,101006.59
2022-11-28T13:58:52.842Z,101010.41
2022-11-28T14:02:01.992Z,101011.53
2022-11-28T14:05:26.241Z,100983.22
2022-11-28T14:08:32.893Z,101003.34
2022-11-28T14:12:08.286Z,101001.41
2022-11-28T14:15:25.718Z,101001.19
2022-11-28T14:19:01.975Z,101006.37
2022-11-28T14:22:31.935Z,100996.28
2022-11-28T14:25:42.319Z,100997.94
2022-11-28T14:28:45.273Z,100996.87
2022-11-28T14:32:13.541Z,100893.00
2022-11-28T14:35:55.641Z,100980.63
2022-11-28T14:39:16.784Z,100990.97
2022-11-28T14:42:58.911Z,100988.00
2022-11-28T14:45:50.034Z,100989.41
2022-11-28T14:48:59.028Z,100985.06
2022-11-28T14:52:41.059Z,100990.59
2022-11-28T14:55:43.790Z,100980.53
2022-11-28T14:58:47.984Z,100989.56
2022-11-28T15:02:12.088Z,100977.06
2022-11-28T15:05:38.474Z,100980.34
2022-11-28T15:09:01.985Z,100986.91
2022-11-28T15:12:17.720Z,100982.00
2022-11-28T15:15:20.687Z,100960.25
2022-11-28T15:18:26.426Z,100981.50
2022-11-28T15:21:28.949Z,100987.25
2022-11-28T15:24:37.219Z,100979.91
2022-11-28T15:27:39.512Z,101004.44
2022-11-28T15:30:47.826Z,100979.41
2022-11-28T15:33:51.074Z,100996.56
2022-11-28T15:36:55.951Z,100973.41
2022-11-28T15:39:59.942Z,100985.41
2022-11-28T15:43:09.542Z,100972.59
2022-11-28T15:46:23.605Z,100980.53
2022-11-28T15:49:34.258Z,100986.50
2022-11-28T15:52:36.522Z,100975.06
2022-11-28T15:55:39.167Z,101002.84
2022-11-28T15:58:43.490Z,100993.59
2022-11-28T16:01:46.479Z,100991.41
2022-11-28T16:05:16.063Z,101007.47
2022-11-28T16:08:32.094Z,100990.84
2022-11-28T16:11:35.912Z,101012.38
2022-11-28T16:14:44.692Z,100984.31
2022-11-28T16:17:47.552Z,101008.81
2022-11-28T16:20:49.804Z,100980.50
2022-11-28T16:23:52.335Z,100996.28
2022-11-28T16:27:00.052Z,101021.66
2022-11-28T16:30:41.432Z,101005.56
2022-11-28T16:33:44.979Z,101017.00
2022-11-28T16:36:48.924Z,101010.75
2022-11-28T16:40:14.647Z,101003.66
2022-11-28T16:43:39.233Z,100997.13
2022-11-28T16:46:54.054Z,100986.50
2022-11-28T16:50:18.278Z,100993.03
2022-11-28T16:53:47.832Z,101015.38
2022-11-28T16:56:50.396Z,101012.63
2022-11-28T16:59:53.000Z,101011.56
2022-11-28T17:02:55.543Z,100994.38
2022-11-28T17:05:57.823Z,100997.38
2022-11-28T17:09:06.886Z,101015.06
2022-11-28T17:12:24.522Z,100992.72
2022-11-28T17:15:27.027Z,101015.88
2022-11-28T17:18:29.334Z,100989.97
2022-11-28T17:21:40.861Z,100992.41
2022-11-28T17:24:43.637Z,100995.94
2022-11-28T17:27:48.100Z,101012.56
2022-11-28T17:30:50.529Z,101012.81
2022-11-28T17:33:53.118Z,101021.25
2022-11-28T17:36:55.408Z,101024.50
2022-11-28T17:40:16.603Z,101014.69
2022-11-28T17:43:21.567Z,101017.41
2022-11-28T17:46:24.053Z,101022.31
2022-11-28T17:49:27.658Z,101013.84
2022-11-28T17:52:32.604Z,100995.84
2022-11-28T17:55:34.996Z,101023.87
2022-11-28T17:58:37.778Z,101018.44
2022-11-28T18:01:41.497Z,100989.53
2022-11-28T18:04:44.159Z,101014.06
2022-11-28T18:07:47.710Z,100994.44
2022-11-28T18:10:50.450Z,101018.38
2022-11-28T18:13:53.514Z,100994.88
2022-11-28T18:16:56.862Z,101027.03
2022-11-28T18:19:59.300Z,101025.94
2022-11-28T18:23:02.850Z,101029.44
2022-11-28T18:26:09.917Z,101022.63
2022-11-28T18:29:12.923Z,101029.97
2022-11-28T18:32:15.274Z,101007.88
2022-11-28T18:35:19.547Z,100999.13
2022-11-28T18:38:23.495Z,101019.84
2022-11-28T18:41:27.442Z,101008.91
2022-11-28T18:44:29.775Z,101010.00
2022-11-28T18:47:34.375Z,101035.06
2022-11-28T18:50:37.043Z,101011.31
2022-11-28T18:53:40.219Z,101030.66
2022-11-28T18:56:42.604Z,101000.66
2022-11-28T18:59:52.759Z,101021.91
2022-11-28T19:02:56.736Z,101034.75
2022-11-28T19:05:59.539Z,101033.91
2022-11-28T19:09:04.439Z,101025.72
2022-11-28T19:12:08.152Z,101042.56
2022-11-28T19:15:11.743Z,101006.91
2022-11-28T19:18:14.330Z,101001.72
2022-11-28T19:21:19.793Z,101015.91
2022-11-28T19:24:22.505Z,101021.88
2022-11-28T19:27:25.902Z,101009.28
2022-11-28T19:30:28.750Z,100995.16
2022-11-28T19:33:31.354Z,101019.72
2022-11-28T19:36:37.300Z,101011.78
2022-11-28T19:39:39.644Z,101028.94
2022-11-28T19:42:42.641Z,101021.59
2022-11-28T19:45:54.324Z,101001.97
2022-11-28T19:48:57.230Z,101008.19
2022-11-28T19:51:59.494Z,101023.53
2022-11-28T19:55:02.510Z,100991.81
2022-11-28T19:58:04.763Z,101038.19
2022-11-28T20:01:19.480Z,101009.34
2022-11-28T20:04:25.215Z,101029.53
2022-11-28T20:07:28.098Z,101033.63
2022-11-28T20:10:30.943Z,101033.63
2022-11-28T20:13:33.825Z,101027.91
2022-11-28T20:16:37.762Z,101024.38
2022-11-28T20:19:40.086Z,101016.44
2022-11-28T20:22:42.758Z,101019.72
2022-11-28T20:25:45.028Z,101000.91
2022-11-28T20:28:48.255Z,101030.59
2022-11-28T20:31:50.570Z,101015.34
2022-11-28T20:34:53.268Z,101008.16
2022-11-28T20:37:55.970Z,101030.81
2022-11-28T20:41:06.976Z,101025.34
2022-11-28T20:44:10.201Z,101033.53
2022-11-28T20:47:12.752Z,101034.31
2022-11-28T20:50:15.046Z,101033.81
2022-11-28T20:53:19.898Z,101001.62
2022-11-28T20:56:51.607Z,101028.38
2022-11-28T20:59:57.462Z,101041.47
2022-11-28T21:02:59.722Z,101036.81
2022-11-28T21:06:02.702Z,101020.47
2022-11-28T21:09:07.622Z,101041.22
2022-11-28T21:12:10.155Z,101037.44
2022-11-28T21:15:12.427Z,101009.38
2022-11-28T21:18:16.469Z,101040.50
2022-11-28T21:21:27.878Z,101041.59
2022-11-28T21:24:30.470Z,101037.00
2022-11-28T21:27:35.331Z,101035.66
2022-11-28T21:30:46.793Z,101023.09
2022-11-28T21:33:50.712Z,101038.44
2022-11-28T21:36:53.986Z,101047.16
2022-11-28T21:39:56.228Z,101022.09
2022-11-28T21:42:58.864Z,101021.00
2022-11-28T21:46:03.315Z,101025.94
2022-11-28T21:49:06.127Z,101020.22
2022-11-28T21:52:11.517Z,101022.41
2022-11-28T21:55:14.222Z,101019.97
2022-11-28T21:58:18.023Z,101033.06
2022-11-28T22:01:22.815Z,101039.63
2022-11-28T22:04:25.424Z,101028.97
2022-11-28T22:07:27.783Z,101048.88
2022-11-28T22:10:32.151Z,101040.75
2022-11-28T22:13:35.656Z,101039.69
2022-11-28T22:16:38.324Z,101049.75
2022-11-28T22:19:41.434Z,101008.06
2022-11-28T22:22:44.119Z,101045.16
2022-11-28T22:25:52.709Z,101039.19
2022-11-28T22:28:55.445Z,101020.66
2022-11-28T22:31:58.205Z,101037.28
2022-11-28T22:35:02.659Z,101028.81
2022-11-28T22:38:05.095Z,101014.38
2022-11-28T22:41:16.252Z,101041.91
2022-11-28T22:44:18.936Z,101015.22
2022-11-28T22:47:21.733Z,101031.06
2022-11-28T22:50:24.034Z,101012.25
2022-11-28T22:53:26.770Z,101014.69
2022-11-28T22:56:31.294Z,101021.78
2022-11-28T22:59:36.714Z,101036.75
2022-11-28T23:02:39.060Z,101037.28
2022-11-28T23:05:46.530Z,101035.09
2022-11-28T23:08:52.414Z,101038.13
2022-11-28T23:11:55.067Z,101044.38
2022-11-28T23:14:57.835Z,101037.56
2022-11-28T23:18:00.605Z,101027.72
2022-11-28T23:21:02.870Z,101044.63
2022-11-28T23:24:06.999Z,101020.63
2022-11-28T23:27:09.374Z,101016.22
2022-11-28T23:30:14.353Z,101047.81
2022-11-28T23:33:17.112Z,101038.00
2022-11-28T23:36:22.728Z,101046.44
2022-11-28T23:39:25.126Z,101029.50
2022-11-28T23:42:37.170Z,101023.53
2022-11-28T23:45:39.533Z,101043.41
2022-11-28T23:48:45.430Z,101024.34
2022-11-28T23:51:47.765Z,101036.91
2022-11-28T23:54:50.226Z,101018.34
2022-11-28T23:57:53.855Z,101018.31
